AUA780K LBSF-LOWW
Flight info
| Callsign | AUA780K |
|---|---|
| Flight time | 1h 20m |
| Altitude | 36000 |
| Route | OGOTA T228 UTEKA DCT DONIV DCT PARAK DCT BALUX DCT TORNO DCT NATEX NATEX2W |
| Aircraft | A20N/M-SDE2E3FGHIJ1RWXY/LB1 |
Departure
| Time | 2026-04-25 15:35 |
|---|---|
| Airport | Sofia Airport (LBSF) |
Arrival
| Time | 2026-04-25 16:55 |
|---|---|
| Airport | Vienna International Airport (LOWW) |
| Time | Latitude | Longitude | Altitude | Speed | Heading |
|---|---|---|---|---|---|
| 2026-04-25 15:08 | 42.69142 | 23.41267 | 1763 ft | 0 kts | 72° |
| 2026-04-25 15:23 | 42.69140 | 23.41258 | 1763 ft | 2 kts | 72° |
| 2026-04-25 15:24 | 42.69136 | 23.41241 | 1763 ft | 0 kts | 72° |
| 2026-04-25 15:24 | 42.69132 | 23.41227 | 1763 ft | 2 kts | 56° |
| 2026-04-25 15:24 | 42.69122 | 23.41212 | 1763 ft | 2 kts | 36° |
| 2026-04-25 15:24 | 42.69113 | 23.41205 | 1764 ft | 2 kts | 21° |
| 2026-04-25 15:25 | 42.69093 | 23.41200 | 1764 ft | 2 kts | 354° |
| 2026-04-25 15:25 | 42.69085 | 23.41202 | 1764 ft | 1 kts | 342° |
| 2026-04-25 15:25 | 42.69081 | 23.41204 | 1764 ft | 0 kts | 342° |
| 2026-04-25 15:28 | 42.69083 | 23.41203 | 1764 ft | 1 kts | 342° |
| 2026-04-25 15:28 | 42.69113 | 23.41190 | 1764 ft | 7 kts | 342° |
| 2026-04-25 15:28 | 42.69170 | 23.41165 | 1765 ft | 8 kts | 341° |
| 2026-04-25 15:28 | 42.69238 | 23.41150 | 1764 ft | 11 kts | 6° |
| 2026-04-25 15:29 | 42.69291 | 23.41230 | 1762 ft | 13 kts | 83° |
| 2026-04-25 15:29 | 42.69286 | 23.41362 | 1761 ft | 14 kts | 95° |
| 2026-04-25 15:29 | 42.69309 | 23.41500 | 1758 ft | 16 kts | 31° |
| 2026-04-25 15:29 | 42.69403 | 23.41523 | 1758 ft | 12 kts | 3° |
| 2026-04-25 15:30 | 42.69463 | 23.41587 | 1758 ft | 12 kts | 86° |
| 2026-04-25 15:30 | 42.69457 | 23.41713 | 1757 ft | 14 kts | 94° |
| 2026-04-25 15:30 | 42.69449 | 23.41854 | 1757 ft | 15 kts | 94° |
| 2026-04-25 15:30 | 42.69440 | 23.42003 | 1757 ft | 16 kts | 94° |
| 2026-04-25 15:31 | 42.69432 | 23.42150 | 1758 ft | 16 kts | 95° |
| 2026-04-25 15:31 | 42.69421 | 23.42304 | 1758 ft | 16 kts | 94° |
| 2026-04-25 15:31 | 42.69412 | 23.42466 | 1757 ft | 18 kts | 94° |
| 2026-04-25 15:31 | 42.69401 | 23.42645 | 1754 ft | 20 kts | 94° |
| 2026-04-25 15:32 | 42.69390 | 23.42833 | 1754 ft | 20 kts | 95° |
| 2026-04-25 15:32 | 42.69379 | 23.43021 | 1755 ft | 19 kts | 93° |
| 2026-04-25 15:32 | 42.69368 | 23.43198 | 1757 ft | 18 kts | 94° |
| 2026-04-25 15:33 | 42.69349 | 23.43517 | 1761 ft | 16 kts | 94° |
| 2026-04-25 15:33 | 42.69339 | 23.43672 | 1761 ft | 16 kts | 95° |
| 2026-04-25 15:33 | 42.69329 | 23.43830 | 1761 ft | 14 kts | 92° |
| 2026-04-25 15:33 | 42.69376 | 23.43938 | 1761 ft | 14 kts | 18° |
| 2026-04-25 15:34 | 42.69466 | 23.43952 | 1761 ft | 12 kts | 3° |
| 2026-04-25 15:34 | 42.69515 | 23.43923 | 1761 ft | 8 kts | 275° |
| 2026-04-25 15:34 | 42.69521 | 23.43808 | 1761 ft | 22 kts | 275° |
| 2026-04-25 15:34 | 42.69539 | 23.43512 | 1760 ft | 76 kts | 274° |
| 2026-04-25 15:35 | 42.69716 | 23.40397 | 2486 ft | 168 kts | 274° |
| 2026-04-25 15:35 | 42.69920 | 23.38904 | 3350 ft | 163 kts | 300° |
| 2026-04-25 15:35 | 42.70591 | 23.37703 | 4041 ft | 168 kts | 314° |
| 2026-04-25 15:36 | 42.72353 | 23.35199 | 5160 ft | 201 kts | 323° |
| 2026-04-25 15:36 | 42.73716 | 23.34482 | 5634 ft | 225 kts | 352° |
| 2026-04-25 15:36 | 42.75327 | 23.34317 | 6289 ft | 244 kts | 356° |
| 2026-04-25 15:37 | 42.77007 | 23.34189 | 6930 ft | 262 kts | 355° |
| 2026-04-25 15:37 | 42.78862 | 23.33978 | 7745 ft | 273 kts | 353° |
| 2026-04-25 15:37 | 42.80729 | 23.33709 | 8699 ft | 278 kts | 352° |
| 2026-04-25 15:37 | 42.82671 | 23.33397 | 9684 ft | 283 kts | 351° |
| 2026-04-25 15:38 | 42.84606 | 23.33069 | 10600 ft | 288 kts | 351° |
| 2026-04-25 15:38 | 42.86645 | 23.32821 | 11392 ft | 298 kts | 356° |
| 2026-04-25 15:38 | 42.88729 | 23.32764 | 12201 ft | 303 kts | 358° |
| 2026-04-25 15:38 | 42.90841 | 23.32756 | 12777 ft | 304 kts | 358° |
| 2026-04-25 15:39 | 42.92966 | 23.32754 | 13528 ft | 311 kts | 358° |
| 2026-04-25 15:39 | 42.95119 | 23.32752 | 14528 ft | 312 kts | 358° |
| 2026-04-25 15:39 | 42.97288 | 23.32749 | 15456 ft | 314 kts | 358° |
| 2026-04-25 15:39 | 42.99448 | 23.32744 | 16327 ft | 317 kts | 358° |
| 2026-04-25 15:40 | 43.01673 | 23.32737 | 17156 ft | 321 kts | 358° |
| 2026-04-25 15:40 | 43.02410 | 23.32735 | 17427 ft | 322 kts | 358° |
| 2026-04-25 15:40 | 43.06153 | 23.32725 | 18758 ft | 328 kts | 359° |
| 2026-04-25 15:40 | 43.08435 | 23.32718 | 19533 ft | 331 kts | 359° |
| 2026-04-25 15:41 | 43.10757 | 23.32710 | 20305 ft | 335 kts | 359° |
| 2026-04-25 15:41 | 43.13097 | 23.32704 | 21071 ft | 338 kts | 359° |
| 2026-04-25 15:41 | 43.15438 | 23.32697 | 21817 ft | 342 kts | 359° |
| 2026-04-25 15:41 | 43.17810 | 23.32689 | 22557 ft | 345 kts | 358° |
| 2026-04-25 15:42 | 43.19433 | 23.32564 | 23030 ft | 347 kts | 350° |
| 2026-04-25 15:42 | 43.22359 | 23.31113 | 23925 ft | 352 kts | 328° |
| 2026-04-25 15:42 | 43.24262 | 23.29035 | 24626 ft | 356 kts | 317° |
| 2026-04-25 15:42 | 43.26052 | 23.26673 | 25306 ft | 359 kts | 317° |
| 2026-04-25 15:43 | 43.27849 | 23.24268 | 25939 ft | 363 kts | 317° |
| 2026-04-25 15:43 | 43.29660 | 23.21849 | 26563 ft | 367 kts | 317° |
| 2026-04-25 15:43 | 43.31496 | 23.19406 | 27175 ft | 370 kts | 317° |
| 2026-04-25 15:43 | 43.33365 | 23.16922 | 27783 ft | 373 kts | 317° |
| 2026-04-25 15:44 | 43.35231 | 23.14443 | 28365 ft | 376 kts | 317° |
| 2026-04-25 15:44 | 43.37106 | 23.11953 | 28895 ft | 379 kts | 317° |
| 2026-04-25 15:44 | 43.39001 | 23.09438 | 29408 ft | 382 kts | 318° |
| 2026-04-25 15:44 | 43.40931 | 23.06883 | 29902 ft | 385 kts | 317° |
| 2026-04-25 15:45 | 43.42855 | 23.04332 | 30370 ft | 388 kts | 317° |
| 2026-04-25 15:45 | 43.44799 | 23.01753 | 30813 ft | 391 kts | 317° |
| 2026-04-25 15:45 | 43.46759 | 22.99146 | 31241 ft | 393 kts | 317° |
| 2026-04-25 15:45 | 43.47416 | 22.98272 | 31385 ft | 394 kts | 317° |
| 2026-04-25 15:46 | 43.50676 | 22.93927 | 32276 ft | 392 kts | 317° |
| 2026-04-25 15:46 | 43.52617 | 22.91334 | 32884 ft | 389 kts | 317° |
| 2026-04-25 15:46 | 43.54566 | 22.88731 | 33477 ft | 386 kts | 317° |
| 2026-04-25 15:46 | 43.56479 | 22.86173 | 34005 ft | 384 kts | 317° |
| 2026-04-25 15:47 | 43.58367 | 22.83644 | 34434 ft | 384 kts | 317° |
| 2026-04-25 15:47 | 43.60284 | 22.81075 | 34827 ft | 385 kts | 317° |
| 2026-04-25 15:47 | 43.62210 | 22.78493 | 35202 ft | 386 kts | 317° |
| 2026-04-25 15:47 | 43.64145 | 22.75894 | 35562 ft | 388 kts | 317° |
| 2026-04-25 15:48 | 43.66072 | 22.73304 | 35901 ft | 389 kts | 317° |
| 2026-04-25 15:48 | 43.68009 | 22.70697 | 36001 ft | 391 kts | 317° |
| 2026-04-25 15:48 | 43.71885 | 22.65475 | 36005 ft | 391 kts | 317° |
| 2026-04-25 15:49 | 43.75768 | 22.60233 | 36007 ft | 391 kts | 317° |
| 2026-04-25 15:49 | 43.79631 | 22.55008 | 36007 ft | 391 kts | 317° |
| 2026-04-25 15:50 | 43.83511 | 22.49746 | 36008 ft | 391 kts | 317° |
| 2026-04-25 15:50 | 43.87374 | 22.44494 | 36009 ft | 390 kts | 317° |
| 2026-04-25 15:51 | 43.90603 | 22.40101 | 36009 ft | 390 kts | 317° |
| 2026-04-25 15:51 | 43.95043 | 22.33845 | 36012 ft | 390 kts | 315° |
| 2026-04-25 15:52 | 43.98795 | 22.28451 | 36006 ft | 390 kts | 315° |
| 2026-04-25 15:52 | 44.02554 | 22.23043 | 36004 ft | 390 kts | 315° |
| 2026-04-25 15:53 | 44.06298 | 22.17652 | 36009 ft | 390 kts | 315° |
| 2026-04-25 15:53 | 44.10055 | 22.12231 | 36014 ft | 390 kts | 315° |
| 2026-04-25 15:54 | 44.13810 | 22.06805 | 36018 ft | 390 kts | 315° |
| 2026-04-25 15:54 | 44.17547 | 22.01394 | 36019 ft | 390 kts | 315° |
| 2026-04-25 15:55 | 44.21306 | 21.95939 | 36020 ft | 389 kts | 315° |
| 2026-04-25 15:55 | 44.25036 | 21.90519 | 36020 ft | 389 kts | 314° |
| 2026-04-25 15:56 | 44.28771 | 21.85076 | 36023 ft | 389 kts | 315° |
| 2026-04-25 15:56 | 44.32516 | 21.79611 | 36016 ft | 389 kts | 314° |
| 2026-04-25 15:57 | 44.36243 | 21.74161 | 36016 ft | 389 kts | 314° |
| 2026-04-25 15:57 | 44.39964 | 21.68711 | 36011 ft | 389 kts | 314° |
| 2026-04-25 15:58 | 44.43681 | 21.63252 | 36009 ft | 389 kts | 314° |
| 2026-04-25 15:58 | 44.47409 | 21.57767 | 36007 ft | 389 kts | 314° |
| 2026-04-25 15:59 | 44.51111 | 21.52309 | 36008 ft | 388 kts | 314° |
| 2026-04-25 15:59 | 44.54833 | 21.46811 | 36006 ft | 388 kts | 314° |
| 2026-04-25 16:00 | 44.57289 | 21.43176 | 36000 ft | 388 kts | 314° |
| 2026-04-25 16:00 | 44.62230 | 21.35847 | 35997 ft | 388 kts | 314° |
| 2026-04-25 16:01 | 44.65914 | 21.30368 | 35994 ft | 388 kts | 313° |
| 2026-04-25 16:01 | 44.69627 | 21.24848 | 35995 ft | 388 kts | 314° |
| 2026-04-25 16:02 | 44.73576 | 21.19696 | 35991 ft | 388 kts | 319° |
| 2026-04-25 16:02 | 44.77885 | 21.15183 | 35986 ft | 387 kts | 325° |
| 2026-04-25 16:03 | 44.82506 | 21.11348 | 35988 ft | 387 kts | 330° |
| 2026-04-25 16:03 | 44.87219 | 21.07840 | 35989 ft | 386 kts | 330° |
| 2026-04-25 16:04 | 44.91977 | 21.04310 | 35988 ft | 386 kts | 330° |
| 2026-04-25 16:04 | 44.96698 | 21.00800 | 35984 ft | 385 kts | 330° |
| 2026-04-25 16:05 | 45.01429 | 20.97272 | 35987 ft | 385 kts | 330° |
| 2026-04-25 16:06 | 45.08527 | 20.91967 | 35981 ft | 385 kts | 330° |
| 2026-04-25 16:06 | 45.13262 | 20.88419 | 35987 ft | 385 kts | 329° |
| 2026-04-25 16:07 | 45.17977 | 20.84882 | 35978 ft | 385 kts | 329° |
| 2026-04-25 16:07 | 45.22715 | 20.81319 | 35979 ft | 384 kts | 329° |
| 2026-04-25 16:08 | 45.27398 | 20.77792 | 35974 ft | 384 kts | 329° |
| 2026-04-25 16:08 | 45.32116 | 20.74231 | 35973 ft | 384 kts | 329° |
| 2026-04-25 16:09 | 45.36825 | 20.70670 | 35977 ft | 384 kts | 329° |
| 2026-04-25 16:09 | 45.41525 | 20.67108 | 35973 ft | 384 kts | 329° |
| 2026-04-25 16:10 | 45.46229 | 20.63536 | 35967 ft | 383 kts | 329° |
| 2026-04-25 16:10 | 45.50919 | 20.59969 | 35970 ft | 383 kts | 329° |
| 2026-04-25 16:11 | 45.55613 | 20.56392 | 35970 ft | 383 kts | 329° |
| 2026-04-25 16:11 | 45.60307 | 20.52810 | 35971 ft | 383 kts | 329° |
| 2026-04-25 16:12 | 45.64978 | 20.49235 | 35971 ft | 383 kts | 329° |
| 2026-04-25 16:12 | 45.69668 | 20.45641 | 35973 ft | 383 kts | 329° |
| 2026-04-25 16:13 | 45.74349 | 20.42046 | 35971 ft | 383 kts | 329° |
| 2026-04-25 16:13 | 45.79034 | 20.38442 | 35972 ft | 382 kts | 328° |
| 2026-04-25 16:14 | 45.83697 | 20.34849 | 35981 ft | 382 kts | 328° |
| 2026-04-25 16:14 | 45.88385 | 20.31225 | 35977 ft | 382 kts | 328° |
| 2026-04-25 16:15 | 45.93050 | 20.27615 | 35980 ft | 382 kts | 328° |
| 2026-04-25 16:15 | 45.97721 | 20.23992 | 35980 ft | 382 kts | 328° |
| 2026-04-25 16:16 | 46.02359 | 20.20390 | 35980 ft | 382 kts | 327° |
| 2026-04-25 16:16 | 46.07020 | 20.16759 | 35973 ft | 380 kts | 327° |
| 2026-04-25 16:17 | 46.11694 | 20.13107 | 35980 ft | 381 kts | 327° |
| 2026-04-25 16:17 | 46.16314 | 20.09498 | 35975 ft | 381 kts | 327° |
| 2026-04-25 16:18 | 46.20938 | 20.05821 | 35972 ft | 381 kts | 327° |
| 2026-04-25 16:18 | 46.25568 | 20.02109 | 35972 ft | 381 kts | 327° |
| 2026-04-25 16:19 | 46.30179 | 19.98406 | 35971 ft | 380 kts | 327° |
| 2026-04-25 16:19 | 46.34782 | 19.94702 | 35973 ft | 380 kts | 327° |
| 2026-04-25 16:20 | 46.41720 | 19.89104 | 35971 ft | 380 kts | 327° |
| 2026-04-25 16:21 | 46.48608 | 19.83531 | 35962 ft | 379 kts | 327° |
| 2026-04-25 16:21 | 46.53211 | 19.79798 | 35960 ft | 379 kts | 326° |
| 2026-04-25 16:22 | 46.57801 | 19.76069 | 35955 ft | 379 kts | 326° |
| 2026-04-25 16:22 | 46.62386 | 19.72334 | 35952 ft | 379 kts | 326° |
| 2026-04-25 16:23 | 46.66970 | 19.68593 | 35951 ft | 379 kts | 326° |
| 2026-04-25 16:23 | 46.71541 | 19.64855 | 35949 ft | 379 kts | 326° |
| 2026-04-25 16:24 | 46.76141 | 19.61088 | 35954 ft | 379 kts | 326° |
| 2026-04-25 16:24 | 46.80715 | 19.57333 | 35947 ft | 378 kts | 326° |
| 2026-04-25 16:25 | 46.85270 | 19.53589 | 35950 ft | 378 kts | 326° |
| 2026-04-25 16:25 | 46.89829 | 19.49832 | 35948 ft | 378 kts | 326° |
| 2026-04-25 16:26 | 46.94417 | 19.46044 | 35947 ft | 377 kts | 326° |
| 2026-04-25 16:26 | 46.98958 | 19.42287 | 35941 ft | 377 kts | 326° |
| 2026-04-25 16:27 | 47.03527 | 19.38496 | 35940 ft | 377 kts | 326° |
| 2026-04-25 16:27 | 47.08073 | 19.34721 | 35939 ft | 378 kts | 325° |
| 2026-04-25 16:28 | 47.12634 | 19.30924 | 35943 ft | 377 kts | 325° |
| 2026-04-25 16:28 | 47.17191 | 19.27123 | 35945 ft | 377 kts | 325° |
| 2026-04-25 16:29 | 47.20963 | 19.23969 | 35945 ft | 377 kts | 325° |
| 2026-04-25 16:29 | 47.26279 | 19.19515 | 35947 ft | 377 kts | 325° |
| 2026-04-25 16:30 | 47.30581 | 19.15187 | 35944 ft | 375 kts | 315° |
| 2026-04-25 16:30 | 47.34213 | 19.09718 | 35946 ft | 377 kts | 306° |
| 2026-04-25 16:31 | 47.37085 | 19.03233 | 35899 ft | 379 kts | 296° |
| 2026-04-25 16:31 | 47.38237 | 18.99753 | 35273 ft | 380 kts | 294° |
| 2026-04-25 16:31 | 47.39353 | 18.96218 | 34633 ft | 378 kts | 293° |
| 2026-04-25 16:31 | 47.40457 | 18.92687 | 34023 ft | 376 kts | 293° |
| 2026-04-25 16:32 | 47.41572 | 18.89115 | 33374 ft | 376 kts | 293° |
| 2026-04-25 16:32 | 47.42746 | 18.85342 | 32693 ft | 376 kts | 293° |
| 2026-04-25 16:32 | 47.43908 | 18.81610 | 32237 ft | 371 kts | 293° |
| 2026-04-25 16:32 | 47.45006 | 18.78080 | 31803 ft | 367 kts | 293° |
| 2026-04-25 16:33 | 47.46117 | 18.74500 | 31346 ft | 364 kts | 293° |
| 2026-04-25 16:33 | 47.47246 | 18.70855 | 30742 ft | 363 kts | 293° |
| 2026-04-25 16:33 | 47.48322 | 18.67374 | 29724 ft | 372 kts | 293° |
| 2026-04-25 16:33 | 47.49391 | 18.63907 | 28677 ft | 379 kts | 293° |
| 2026-04-25 16:34 | 47.50485 | 18.60358 | 27888 ft | 380 kts | 293° |
| 2026-04-25 16:34 | 47.51581 | 18.56806 | 27266 ft | 376 kts | 293° |
| 2026-04-25 16:34 | 47.52671 | 18.53272 | 26648 ft | 373 kts | 293° |
| 2026-04-25 16:34 | 47.53692 | 18.49786 | 26028 ft | 370 kts | 291° |
| 2026-04-25 16:35 | 47.54569 | 18.46223 | 25396 ft | 367 kts | 288° |
| 2026-04-25 16:35 | 47.55336 | 18.42701 | 24797 ft | 364 kts | 287° |
| 2026-04-25 16:35 | 47.56101 | 18.39133 | 24182 ft | 361 kts | 287° |
| 2026-04-25 16:35 | 47.56851 | 18.35616 | 23581 ft | 358 kts | 288° |
| 2026-04-25 16:36 | 47.57590 | 18.32139 | 23007 ft | 355 kts | 287° |
| 2026-04-25 16:36 | 47.57838 | 18.30972 | 22809 ft | 354 kts | 287° |
| 2026-04-25 16:36 | 47.59060 | 18.25215 | 21831 ft | 350 kts | 287° |
| 2026-04-25 16:36 | 47.59791 | 18.21765 | 21250 ft | 347 kts | 287° |
| 2026-04-25 16:37 | 47.60517 | 18.18329 | 20668 ft | 345 kts | 287° |
| 2026-04-25 16:37 | 47.61227 | 18.14968 | 20092 ft | 343 kts | 287° |
| 2026-04-25 16:37 | 47.61934 | 18.11608 | 19526 ft | 341 kts | 287° |
| 2026-04-25 16:37 | 47.62632 | 18.08290 | 18983 ft | 338 kts | 287° |
| 2026-04-25 16:38 | 47.63327 | 18.04977 | 18416 ft | 336 kts | 287° |
| 2026-04-25 16:38 | 47.64018 | 18.01680 | 17878 ft | 333 kts | 288° |
| 2026-04-25 16:38 | 47.64701 | 17.98416 | 17347 ft | 331 kts | 288° |
| 2026-04-25 16:38 | 47.65386 | 17.95190 | 16805 ft | 329 kts | 288° |
| 2026-04-25 16:39 | 47.66089 | 17.92001 | 16222 ft | 327 kts | 289° |
| 2026-04-25 16:39 | 47.66796 | 17.88801 | 15657 ft | 325 kts | 289° |
| 2026-04-25 16:39 | 47.67491 | 17.85638 | 15138 ft | 322 kts | 289° |
| 2026-04-25 16:39 | 47.68189 | 17.82447 | 14597 ft | 321 kts | 289° |
| 2026-04-25 16:40 | 47.68869 | 17.79326 | 14104 ft | 319 kts | 289° |
| 2026-04-25 16:40 | 47.69540 | 17.76238 | 13597 ft | 318 kts | 289° |
| 2026-04-25 16:40 | 47.70216 | 17.73120 | 13095 ft | 315 kts | 289° |
| 2026-04-25 16:40 | 47.70882 | 17.70042 | 12588 ft | 313 kts | 289° |
| 2026-04-25 16:41 | 47.71537 | 17.67005 | 12070 ft | 311 kts | 289° |
| 2026-04-25 16:41 | 47.72195 | 17.63957 | 11554 ft | 310 kts | 289° |
| 2026-04-25 16:41 | 47.73492 | 17.57921 | 10568 ft | 306 kts | 289° |
| 2026-04-25 16:42 | 47.74136 | 17.54921 | 10138 ft | 303 kts | 289° |
| 2026-04-25 16:42 | 47.74776 | 17.51933 | 9979 ft | 304 kts | 289° |
| 2026-04-25 16:42 | 47.75420 | 17.48922 | 9975 ft | 305 kts | 289° |
| 2026-04-25 16:42 | 47.76063 | 17.45919 | 9974 ft | 306 kts | 289° |
| 2026-04-25 16:43 | 47.76695 | 17.42956 | 9839 ft | 300 kts | 289° |
| 2026-04-25 16:43 | 47.77321 | 17.40016 | 9306 ft | 300 kts | 289° |
| 2026-04-25 16:43 | 47.77944 | 17.37088 | 8768 ft | 300 kts | 289° |
| 2026-04-25 16:43 | 47.78572 | 17.34127 | 8281 ft | 297 kts | 288° |
| 2026-04-25 16:44 | 47.79187 | 17.31219 | 7801 ft | 295 kts | 288° |
| 2026-04-25 16:44 | 47.79794 | 17.28354 | 7312 ft | 293 kts | 288° |
| 2026-04-25 16:44 | 47.80402 | 17.25477 | 6812 ft | 291 kts | 288° |
| 2026-04-25 16:44 | 47.81006 | 17.22616 | 6328 ft | 289 kts | 288° |
| 2026-04-25 16:45 | 47.81599 | 17.19804 | 6008 ft | 283 kts | 288° |
| 2026-04-25 16:45 | 47.82167 | 17.17104 | 5970 ft | 265 kts | 288° |
| 2026-04-25 16:45 | 47.82706 | 17.14533 | 5970 ft | 258 kts | 288° |
| 2026-04-25 16:45 | 47.83242 | 17.11978 | 5971 ft | 258 kts | 289° |
| 2026-04-25 16:46 | 47.83772 | 17.09454 | 5974 ft | 258 kts | 288° |
| 2026-04-25 16:46 | 47.84304 | 17.06919 | 5864 ft | 253 kts | 288° |
| 2026-04-25 16:46 | 47.84825 | 17.04425 | 5568 ft | 248 kts | 288° |
| 2026-04-25 16:46 | 47.84994 | 17.03613 | 5496 ft | 246 kts | 289° |
| 2026-04-25 16:47 | 47.85821 | 16.99646 | 4949 ft | 242 kts | 289° |
| 2026-04-25 16:47 | 47.86315 | 16.97276 | 4585 ft | 241 kts | 289° |
| 2026-04-25 16:47 | 47.86814 | 16.94881 | 4242 ft | 238 kts | 289° |
| 2026-04-25 16:47 | 47.87298 | 16.92557 | 3987 ft | 238 kts | 289° |
| 2026-04-25 16:48 | 47.87782 | 16.90227 | 3733 ft | 233 kts | 289° |
| 2026-04-25 16:48 | 47.88255 | 16.87947 | 3486 ft | 228 kts | 289° |
| 2026-04-25 16:48 | 47.88720 | 16.85701 | 3242 ft | 224 kts | 289° |
| 2026-04-25 16:48 | 47.89178 | 16.83482 | 3024 ft | 218 kts | 289° |
| 2026-04-25 16:49 | 47.89630 | 16.81290 | 2989 ft | 215 kts | 289° |
| 2026-04-25 16:49 | 47.90068 | 16.79168 | 2989 ft | 215 kts | 289° |
| 2026-04-25 16:49 | 47.90511 | 16.77028 | 2991 ft | 213 kts | 289° |
| 2026-04-25 16:49 | 47.90941 | 16.74944 | 2976 ft | 212 kts | 288° |
| 2026-04-25 16:50 | 47.91374 | 16.72840 | 2987 ft | 212 kts | 289° |
| 2026-04-25 16:50 | 47.91810 | 16.70721 | 2989 ft | 213 kts | 288° |
| 2026-04-25 16:50 | 47.92231 | 16.68672 | 2985 ft | 199 kts | 288° |
| 2026-04-25 16:50 | 47.92760 | 16.66846 | 2973 ft | 191 kts | 311° |
| 2026-04-25 16:51 | 47.93815 | 16.65685 | 2993 ft | 191 kts | 332° |
| 2026-04-25 16:51 | 47.95036 | 16.64980 | 2990 ft | 186 kts | 339° |
| 2026-04-25 16:51 | 47.96282 | 16.64443 | 2980 ft | 186 kts | 340° |
| 2026-04-25 16:51 | 47.96687 | 16.64278 | 2932 ft | 186 kts | 341° |
| 2026-04-25 16:52 | 47.98751 | 16.63431 | 2623 ft | 178 kts | 340° |
| 2026-04-25 16:52 | 47.99917 | 16.62942 | 2384 ft | 173 kts | 339° |
| 2026-04-25 16:52 | 48.01052 | 16.62459 | 2131 ft | 164 kts | 339° |
| 2026-04-25 16:52 | 48.02107 | 16.62013 | 1923 ft | 148 kts | 339° |
| 2026-04-25 16:53 | 48.03942 | 16.61228 | 1507 ft | 130 kts | 337° |
| 2026-04-25 16:53 | 48.04798 | 16.60846 | 1344 ft | 129 kts | 338° |
| 2026-04-25 16:53 | 48.05668 | 16.60489 | 1228 ft | 129 kts | 339° |
| 2026-04-25 16:54 | 48.06539 | 16.60136 | 1082 ft | 129 kts | 339° |
| 2026-04-25 16:54 | 48.07396 | 16.59767 | 907 ft | 129 kts | 338° |
| 2026-04-25 16:54 | 48.08257 | 16.59383 | 719 ft | 128 kts | 340° |
| 2026-04-25 16:54 | 48.09117 | 16.59024 | 599 ft | 127 kts | 340° |
| 2026-04-25 16:55 | 48.09907 | 16.58691 | 598 ft | 102 kts | 343° |
| 2026-04-25 16:55 | 48.10440 | 16.58463 | 599 ft | 62 kts | 345° |
| 2026-04-25 16:55 | 48.10820 | 16.58305 | 596 ft | 54 kts | 343° |
| 2026-04-25 16:55 | 48.11166 | 16.58156 | 593 ft | 49 kts | 345° |
| 2026-04-25 16:56 | 48.11483 | 16.58025 | 592 ft | 45 kts | 344° |
| 2026-04-25 16:56 | 48.11761 | 16.57906 | 592 ft | 34 kts | 338° |
| 2026-04-25 16:56 | 48.11859 | 16.57716 | 592 ft | 19 kts | 273° |
| 2026-04-25 16:56 | 48.11847 | 16.57607 | 592 ft | 7 kts | 254° |
| 2026-04-25 16:57 | 48.11833 | 16.57531 | 592 ft | 8 kts | 256° |
| 2026-04-25 16:57 | 48.11828 | 16.57503 | 592 ft | 8 kts | 255° |
| 2026-04-25 16:57 | 48.11807 | 16.57400 | 595 ft | 6 kts | 262° |
| 2026-04-25 16:57 | 48.11819 | 16.57317 | 596 ft | 5 kts | 295° |
| 2026-04-25 16:58 | 48.11837 | 16.57262 | 596 ft | 6 kts | 295° |
| 2026-04-25 16:58 | 48.11860 | 16.57206 | 597 ft | 6 kts | 319° |
| 2026-04-25 16:58 | 48.11898 | 16.57148 | 596 ft | 8 kts | 295° |
| 2026-04-25 16:58 | 48.11929 | 16.57130 | 595 ft | 7 kts | 26° |
| 2026-04-25 16:59 | 48.11961 | 16.57154 | 594 ft | 3 kts | 26° |
| 2026-04-25 16:59 | 48.11964 | 16.57157 | 593 ft | 0 kts | 26° |